sensor_id;sensor_type;location;lat;lon;timestamp;temperature;humidity
52965;DHT22;42923;53.220;6.528;2022-10-16T00:01:34;12.00;99.90
52965;DHT22;42923;53.220;6.528;2022-10-16T00:04:00;12.00;99.90
52965;DHT22;42923;53.220;6.528;2022-10-16T00:06:26;12.00;99.90
52965;DHT22;42923;53.220;6.528;2022-10-16T00:08:52;12.00;99.90
52965;DHT22;42923;53.220;6.528;2022-10-16T00:11:22;12.00;99.90
52965;DHT22;42923;53.220;6.528;2022-10-16T00:13:49;12.00;99.90
52965;DHT22;42923;53.220;6.528;2022-10-16T00:16:16;11.90;99.90
52965;DHT22;42923;53.220;6.528;2022-10-16T00:18:41;12.00;99.90
52965;DHT22;42923;53.220;6.528;2022-10-16T00:21:08;12.00;99.90
52965;DHT22;42923;53.220;6.528;2022-10-16T00:23:34;12.00;99.90
52965;DHT22;42923;53.220;6.528;2022-10-16T00:26:02;12.00;99.90
52965;DHT22;42923;53.220;6.528;2022-10-16T00:28:28;12.10;99.90
52965;DHT22;42923;53.220;6.528;2022-10-16T00:30:54;12.10;99.90
52965;DHT22;42923;53.220;6.528;2022-10-16T00:33:19;11.40;99.90
52965;DHT22;42923;53.220;6.528;2022-10-16T00:35:45;11.60;99.90
52965;DHT22;42923;53.220;6.528;2022-10-16T00:38:11;12.10;99.90
52965;DHT22;42923;53.220;6.528;2022-10-16T00:40:36;12.00;99.90
52965;DHT22;42923;53.220;6.528;2022-10-16T00:43:02;12.00;99.90
52965;DHT22;42923;53.220;6.528;2022-10-16T00:45:28;12.00;99.90
52965;DHT22;42923;53.220;6.528;2022-10-16T00:47:54;12.00;99.90
52965;DHT22;42923;53.220;6.528;2022-10-16T00:52:46;11.90;99.90
52965;DHT22;42923;53.220;6.528;2022-10-16T00:55:13;12.00;99.90
52965;DHT22;42923;53.220;6.528;2022-10-16T00:57:39;11.90;99.90
52965;DHT22;42923;53.220;6.528;2022-10-16T01:00:06;12.00;99.90
52965;DHT22;42923;53.220;6.528;2022-10-16T01:02:32;12.00;99.90
52965;DHT22;42923;53.220;6.528;2022-10-16T01:04:58;12.00;99.90
52965;DHT22;42923;53.220;6.528;2022-10-16T01:07:30;12.10;99.90
52965;DHT22;42923;53.220;6.528;2022-10-16T01:12:47;12.10;99.90
52965;DHT22;42923;53.220;6.528;2022-10-16T01:17:48;12.10;99.90
52965;DHT22;42923;53.220;6.528;2022-10-16T01:25:16;12.10;99.90
52965;DHT22;42923;53.220;6.528;2022-10-16T01:27:45;12.10;99.90
52965;DHT22;42923;53.220;6.528;2022-10-16T01:30:21;12.10;99.90
52965;DHT22;42923;53.220;6.528;2022-10-16T01:33:00;12.20;99.90
52965;DHT22;42923;53.220;6.528;2022-10-16T01:35:27;12.10;99.90
52965;DHT22;42923;53.220;6.528;2022-10-16T01:40:26;12.10;99.90
52965;DHT22;42923;53.220;6.528;2022-10-16T01:42:58;12.20;99.90
52965;DHT22;42923;53.220;6.528;2022-10-16T01:45:25;12.10;99.90
52965;DHT22;42923;53.220;6.528;2022-10-16T01:47:52;11.70;99.90
52965;DHT22;42923;53.220;6.528;2022-10-16T01:50:18;12.10;99.90
52965;DHT22;42923;53.220;6.528;2022-10-16T01:52:46;12.10;99.90
52965;DHT22;42923;53.220;6.528;2022-10-16T01:55:14;12.20;99.90
52965;DHT22;42923;53.220;6.528;2022-10-16T01:57:41;12.20;99.90
52965;DHT22;42923;53.220;6.528;2022-10-16T02:00:09;11.90;99.90
52965;DHT22;42923;53.220;6.528;2022-10-16T02:02:39;12.20;99.90
52965;DHT22;42923;53.220;6.528;2022-10-16T02:05:10;12.20;99.90
52965;DHT22;42923;53.220;6.528;2022-10-16T02:07:37;11.90;99.90
52965;DHT22;42923;53.220;6.528;2022-10-16T02:10:02;12.30;99.90
52965;DHT22;42923;53.220;6.528;2022-10-16T02:12:30;12.30;99.90
52965;DHT22;42923;53.220;6.528;2022-10-16T02:14:57;12.40;99.90
52965;DHT22;42923;53.220;6.528;2022-10-16T02:17:23;12.40;99.90
52965;DHT22;42923;53.220;6.528;2022-10-16T02:19:49;12.40;99.90
52965;DHT22;42923;53.220;6.528;2022-10-16T02:22:21;12.50;99.90
52965;DHT22;42923;53.220;6.528;2022-10-16T02:24:54;12.50;99.90
52965;DHT22;42923;53.220;6.528;2022-10-16T02:27:40;12.50;99.90
52965;DHT22;42923;53.220;6.528;2022-10-16T02:30:14;12.60;99.90
52965;DHT22;42923;53.220;6.528;2022-10-16T02:32:44;12.60;99.90
52965;DHT22;42923;53.220;6.528;2022-10-16T02:35:11;12.60;99.90
52965;DHT22;42923;53.220;6.528;2022-10-16T02:37:37;12.60;99.90
52965;DHT22;42923;53.220;6.528;2022-10-16T02:40:04;12.60;99.90
52965;DHT22;42923;53.220;6.528;2022-10-16T02:42:34;12.60;99.90
52965;DHT22;42923;53.220;6.528;2022-10-16T02:45:00;12.60;99.90
52965;DHT22;42923;53.220;6.528;2022-10-16T02:47:25;12.70;99.90
52965;DHT22;42923;53.220;6.528;2022-10-16T02:49:52;12.60;99.90
52965;DHT22;42923;53.220;6.528;2022-10-16T02:52:18;12.30;99.90
52965;DHT22;42923;53.220;6.528;2022-10-16T02:54:43;12.60;99.90
52965;DHT22;42923;53.220;6.528;2022-10-16T02:57:09;12.60;99.90
52965;DHT22;42923;53.220;6.528;2022-10-16T02:59:34;12.70;99.90
52965;DHT22;42923;53.220;6.528;2022-10-16T03:02:00;12.70;99.90
52965;DHT22;42923;53.220;6.528;2022-10-16T03:04:26;12.70;99.90
52965;DHT22;42923;53.220;6.528;2022-10-16T03:06:51;12.70;99.90
52965;DHT22;42923;53.220;6.528;2022-10-16T03:09:17;12.60;99.90
52965;DHT22;42923;53.220;6.528;2022-10-16T03:11:42;12.60;99.90
52965;DHT22;42923;53.220;6.528;2022-10-16T03:14:08;12.70;99.90
52965;DHT22;42923;53.220;6.528;2022-10-16T03:16:34;12.80;99.90
52965;DHT22;42923;53.220;6.528;2022-10-16T03:18:59;12.50;99.90
52965;DHT22;42923;53.220;6.528;2022-10-16T03:21:25;12.60;99.90
52965;DHT22;42923;53.220;6.528;2022-10-16T03:23:50;12.60;99.90
52965;DHT22;42923;53.220;6.528;2022-10-16T03:26:16;12.60;99.90
52965;DHT22;42923;53.220;6.528;2022-10-16T03:28:42;12.60;99.90
52965;DHT22;42923;53.220;6.528;2022-10-16T03:31:07;12.70;99.90
52965;DHT22;42923;53.220;6.528;2022-10-16T03:33:33;12.70;99.90
52965;DHT22;42923;53.220;6.528;2022-10-16T03:35:59;12.70;99.90
52965;DHT22;42923;53.220;6.528;2022-10-16T03:38:25;12.70;99.90
52965;DHT22;42923;53.220;6.528;2022-10-16T03:40:51;12.70;99.90
52965;DHT22;42923;53.220;6.528;2022-10-16T03:43:16;12.70;99.90
52965;DHT22;42923;53.220;6.528;2022-10-16T03:45:42;12.70;99.90
52965;DHT22;42923;53.220;6.528;2022-10-16T03:48:08;12.60;99.90
52965;DHT22;42923;53.220;6.528;2022-10-16T03:50:33;12.60;99.90
52965;DHT22;42923;53.220;6.528;2022-10-16T03:52:59;12.10;99.90
52965;DHT22;42923;53.220;6.528;2022-10-16T03:55:24;12.50;99.90
52965;DHT22;42923;53.220;6.528;2022-10-16T03:57:50;12.50;99.90
52965;DHT22;42923;53.220;6.528;2022-10-16T04:00:16;12.50;99.90
52965;DHT22;42923;53.220;6.528;2022-10-16T04:02:41;12.50;99.90
52965;DHT22;42923;53.220;6.528;2022-10-16T04:05:07;12.40;99.90
52965;DHT22;42923;53.220;6.528;2022-10-16T04:07:33;12.40;99.90
52965;DHT22;42923;53.220;6.528;2022-10-16T04:09:58;12.50;99.90
52965;DHT22;42923;53.220;6.528;2022-10-16T04:12:25;12.30;99.90
52965;DHT22;42923;53.220;6.528;2022-10-16T04:14:50;12.20;99.90
52965;DHT22;42923;53.220;6.528;2022-10-16T04:17:16;12.10;99.90
52965;DHT22;42923;53.220;6.528;2022-10-16T04:19:41;12.10;99.90
52965;DHT22;42923;53.220;6.528;2022-10-16T04:22:07;12.10;99.90
52965;DHT22;42923;53.220;6.528;2022-10-16T04:24:33;12.10;99.90
52965;DHT22;42923;53.220;6.528;2022-10-16T04:26:58;12.10;99.90
52965;DHT22;42923;53.220;6.528;2022-10-16T04:29:24;12.10;99.90
52965;DHT22;42923;53.220;6.528;2022-10-16T04:31:49;12.10;99.90
52965;DHT22;42923;53.220;6.528;2022-10-16T04:34:15;12.10;99.90
52965;DHT22;42923;53.220;6.528;2022-10-16T04:36:41;12.40;99.90
52965;DHT22;42923;53.220;6.528;2022-10-16T04:39:06;11.80;99.90
52965;DHT22;42923;53.220;6.528;2022-10-16T04:41:32;12.10;99.90
52965;DHT22;42923;53.220;6.528;2022-10-16T04:43:57;11.70;99.90
52965;DHT22;42923;53.220;6.528;2022-10-16T04:46:23;12.10;99.90
52965;DHT22;42923;53.220;6.528;2022-10-16T04:48:48;12.10;99.90
52965;DHT22;42923;53.220;6.528;2022-10-16T04:51:14;12.20;99.90
52965;DHT22;42923;53.220;6.528;2022-10-16T04:53:40;12.30;99.90
52965;DHT22;42923;53.220;6.528;2022-10-16T04:56:05;12.50;99.90
52965;DHT22;42923;53.220;6.528;2022-10-16T04:58:31;12.30;99.90
52965;DHT22;42923;53.220;6.528;2022-10-16T05:00:56;12.40;99.90
52965;DHT22;42923;53.220;6.528;2022-10-16T05:03:22;12.40;99.90
52965;DHT22;42923;53.220;6.528;2022-10-16T05:05:48;12.40;99.90
52965;DHT22;42923;53.220;6.528;2022-10-16T05:08:14;12.50;99.90
52965;DHT22;42923;53.220;6.528;2022-10-16T05:10:40;12.40;99.90
52965;DHT22;42923;53.220;6.528;2022-10-16T05:13:06;12.50;99.90
52965;DHT22;42923;53.220;6.528;2022-10-16T05:15:32;12.40;99.90
52965;DHT22;42923;53.220;6.528;2022-10-16T05:17:58;12.50;99.90
52965;DHT22;42923;53.220;6.528;2022-10-16T05:20:24;12.40;99.90
52965;DHT22;42923;53.220;6.528;2022-10-16T05:22:49;12.40;99.90
52965;DHT22;42923;53.220;6.528;2022-10-16T05:25:15;12.40;99.90
52965;DHT22;42923;53.220;6.528;2022-10-16T05:27:41;12.50;99.90
52965;DHT22;42923;53.220;6.528;2022-10-16T05:30:06;12.40;99.90
52965;DHT22;42923;53.220;6.528;2022-10-16T05:32:33;12.40;99.90
52965;DHT22;42923;53.220;6.528;2022-10-16T05:34:58;12.30;99.90
52965;DHT22;42923;53.220;6.528;2022-10-16T05:37:25;12.40;99.90
52965;DHT22;42923;53.220;6.528;2022-10-16T05:39:51;12.30;99.90
52965;DHT22;42923;53.220;6.528;2022-10-16T05:42:16;12.30;99.90
52965;DHT22;42923;53.220;6.528;2022-10-16T05:44:42;12.30;99.90
52965;DHT22;42923;53.220;6.528;2022-10-16T05:47:08;12.30;99.90
52965;DHT22;42923;53.220;6.528;2022-10-16T05:49:34;12.50;99.90
52965;DHT22;42923;53.220;6.528;2022-10-16T05:51:59;12.30;99.90
52965;DHT22;42923;53.220;6.528;2022-10-16T05:54:25;12.30;99.90
52965;DHT22;42923;53.220;6.528;2022-10-16T05:56:50;12.30;99.90
52965;DHT22;42923;53.220;6.528;2022-10-16T05:59:16;12.30;99.90
52965;DHT22;42923;53.220;6.528;2022-10-16T06:01:42;12.40;99.90
52965;DHT22;42923;53.220;6.528;2022-10-16T06:04:08;12.20;99.90
52965;DHT22;42923;53.220;6.528;2022-10-16T06:06:33;12.30;99.90
52965;DHT22;42923;53.220;6.528;2022-10-16T06:09:01;12.30;99.90
52965;DHT22;42923;53.220;6.528;2022-10-16T06:11:28;12.30;99.90
52965;DHT22;42923;53.220;6.528;2022-10-16T06:13:54;12.20;99.90
52965;DHT22;42923;53.220;6.528;2022-10-16T06:16:22;12.20;99.90
52965;DHT22;42923;53.220;6.528;2022-10-16T06:18:47;12.20;99.90
52965;DHT22;42923;53.220;6.528;2022-10-16T06:21:17;12.30;99.90
52965;DHT22;42923;53.220;6.528;2022-10-16T06:23:43;12.30;99.90
52965;DHT22;42923;53.220;6.528;2022-10-16T06:26:10;12.30;99.90
52965;DHT22;42923;53.220;6.528;2022-10-16T06:28:36;12.30;99.90
52965;DHT22;42923;53.220;6.528;2022-10-16T06:31:03;12.40;99.90
52965;DHT22;42923;53.220;6.528;2022-10-16T06:33:29;12.60;99.90
52965;DHT22;42923;53.220;6.528;2022-10-16T06:36:00;12.50;99.90
52965;DHT22;42923;53.220;6.528;2022-10-16T06:38:25;12.50;99.90
52965;DHT22;42923;53.220;6.528;2022-10-16T06:40:53;12.50;99.90
52965;DHT22;42923;53.220;6.528;2022-10-16T06:43:18;12.60;99.90
52965;DHT22;42923;53.220;6.528;2022-10-16T06:45:49;12.60;99.90
52965;DHT22;42923;53.220;6.528;2022-10-16T06:48:15;12.60;99.90
52965;DHT22;42923;53.220;6.528;2022-10-16T06:50:41;12.70;99.90
52965;DHT22;42923;53.220;6.528;2022-10-16T06:53:06;12.70;99.90
52965;DHT22;42923;53.220;6.528;2022-10-16T06:55:32;12.80;99.90
52965;DHT22;42923;53.220;6.528;2022-10-16T06:57:57;12.70;99.90
52965;DHT22;42923;53.220;6.528;2022-10-16T07:00:23;12.80;99.90
52965;DHT22;42923;53.220;6.528;2022-10-16T07:02:49;12.80;99.90
52965;DHT22;42923;53.220;6.528;2022-10-16T07:05:15;12.90;99.90
52965;DHT22;42923;53.220;6.528;2022-10-16T07:07:42;12.90;99.90
52965;DHT22;42923;53.220;6.528;2022-10-16T07:10:07;12.90;99.90
52965;DHT22;42923;53.220;6.528;2022-10-16T07:12:33;12.90;99.90
52965;DHT22;42923;53.220;6.528;2022-10-16T07:14:59;13.00;99.90
52965;DHT22;42923;53.220;6.528;2022-10-16T07:17:24;13.00;99.90
52965;DHT22;42923;53.220;6.528;2022-10-16T07:19:50;13.10;99.90
52965;DHT22;42923;53.220;6.528;2022-10-16T07:22:18;13.10;99.90
52965;DHT22;42923;53.220;6.528;2022-10-16T07:24:44;13.10;99.90
52965;DHT22;42923;53.220;6.528;2022-10-16T07:27:10;13.20;99.90
52965;DHT22;42923;53.220;6.528;2022-10-16T07:29:35;13.20;99.90
52965;DHT22;42923;53.220;6.528;2022-10-16T07:32:01;13.20;99.90
52965;DHT22;42923;53.220;6.528;2022-10-16T07:34:27;13.30;99.90
52965;DHT22;42923;53.220;6.528;2022-10-16T07:36:53;13.30;99.90
52965;DHT22;42923;53.220;6.528;2022-10-16T07:39:18;13.30;99.90
52965;DHT22;42923;53.220;6.528;2022-10-16T07:41:44;12.90;99.90
52965;DHT22;42923;53.220;6.528;2022-10-16T07:44:10;13.30;99.90
52965;DHT22;42923;53.220;6.528;2022-10-16T07:46:36;13.30;99.90
52965;DHT22;42923;53.220;6.528;2022-10-16T07:49:02;13.20;99.90
52965;DHT22;42923;53.220;6.528;2022-10-16T07:51:27;13.30;99.90
52965;DHT22;42923;53.220;6.528;2022-10-16T07:53:53;12.90;99.90
52965;DHT22;42923;53.220;6.528;2022-10-16T07:56:20;13.30;99.90
52965;DHT22;42923;53.220;6.528;2022-10-16T07:58:46;13.20;99.90
52965;DHT22;42923;53.220;6.528;2022-10-16T08:01:13;13.20;99.90
52965;DHT22;42923;53.220;6.528;2022-10-16T08:03:41;13.10;99.90
52965;DHT22;42923;53.220;6.528;2022-10-16T08:06:07;13.10;99.90
52965;DHT22;42923;53.220;6.528;2022-10-16T08:08:32;13.00;99.90
52965;DHT22;42923;53.220;6.528;2022-10-16T08:10:58;13.00;99.90
52965;DHT22;42923;53.220;6.528;2022-10-16T08:13:24;13.00;99.90
52965;DHT22;42923;53.220;6.528;2022-10-16T08:15:49;12.90;99.90
52965;DHT22;42923;53.220;6.528;2022-10-16T08:18:15;13.10;99.90
52965;DHT22;42923;53.220;6.528;2022-10-16T08:20:41;13.20;99.90
52965;DHT22;42923;53.220;6.528;2022-10-16T08:23:07;13.30;99.90
52965;DHT22;42923;53.220;6.528;2022-10-16T08:25:35;13.30;99.90
52965;DHT22;42923;53.220;6.528;2022-10-16T08:28:05;13.40;99.90
52965;DHT22;42923;53.220;6.528;2022-10-16T08:30:33;13.60;99.90
52965;DHT22;42923;53.220;6.528;2022-10-16T08:32:59;13.80;99.90
52965;DHT22;42923;53.220;6.528;2022-10-16T08:35:25;14.10;99.90
52965;DHT22;42923;53.220;6.528;2022-10-16T08:37:50;14.30;99.90
52965;DHT22;42923;53.220;6.528;2022-10-16T08:40:20;14.50;99.90
52965;DHT22;42923;53.220;6.528;2022-10-16T08:45:34;14.70;99.90
52965;DHT22;42923;53.220;6.528;2022-10-16T08:48:08;14.80;99.90
52965;DHT22;42923;53.220;6.528;2022-10-16T08:50:36;14.90;99.90
52965;DHT22;42923;53.220;6.528;2022-10-16T08:53:03;15.00;99.90
52965;DHT22;42923;53.220;6.528;2022-10-16T08:55:30;15.10;99.90
52965;DHT22;42923;53.220;6.528;2022-10-16T08:57:57;15.20;99.90
52965;DHT22;42923;53.220;6.528;2022-10-16T09:00:23;15.30;99.90
52965;DHT22;42923;53.220;6.528;2022-10-16T09:02:52;15.40;99.90
52965;DHT22;42923;53.220;6.528;2022-10-16T09:05:27;15.40;99.90
52965;DHT22;42923;53.220;6.528;2022-10-16T09:08:17;15.40;99.90
52965;DHT22;42923;53.220;6.528;2022-10-16T09:13:22;15.50;99.90
52965;DHT22;42923;53.220;6.528;2022-10-16T09:15:52;15.40;99.90
52965;DHT22;42923;53.220;6.528;2022-10-16T09:18:37;15.30;99.90
52965;DHT22;42923;53.220;6.528;2022-10-16T09:23:30;15.40;99.90
52965;DHT22;42923;53.220;6.528;2022-10-16T09:25:56;15.50;99.90
52965;DHT22;42923;53.220;6.528;2022-10-16T09:28:23;15.50;99.90
52965;DHT22;42923;53.220;6.528;2022-10-16T09:30:49;15.60;99.90
52965;DHT22;42923;53.220;6.528;2022-10-16T09:33:15;15.70;99.90
52965;DHT22;42923;53.220;6.528;2022-10-16T09:38:08;16.10;99.90
52965;DHT22;42923;53.220;6.528;2022-10-16T09:40:37;16.30;99.90
52965;DHT22;42923;53.220;6.528;2022-10-16T09:45:38;16.40;99.90
52965;DHT22;42923;53.220;6.528;2022-10-16T09:48:10;16.50;99.90
52965;DHT22;42923;53.220;6.528;2022-10-16T09:50:36;16.60;99.90
52965;DHT22;42923;53.220;6.528;2022-10-16T09:53:20;16.50;99.90
52965;DHT22;42923;53.220;6.528;2022-10-16T09:55:48;16.60;99.90
52965;DHT22;42923;53.220;6.528;2022-10-16T09:58:14;16.70;99.90
52965;DHT22;42923;53.220;6.528;2022-10-16T10:00:41;16.90;99.90
52965;DHT22;42923;53.220;6.528;2022-10-16T10:03:10;17.10;99.90
52965;DHT22;42923;53.220;6.528;2022-10-16T10:05:36;17.30;99.90
52965;DHT22;42923;53.220;6.528;2022-10-16T10:08:04;17.40;99.90
52965;DHT22;42923;53.220;6.528;2022-10-16T10:10:32;17.70;99.90
52965;DHT22;42923;53.220;6.528;2022-10-16T10:12:58;18.10;99.90
52965;DHT22;42923;53.220;6.528;2022-10-16T10:15:24;18.20;99.90
52965;DHT22;42923;53.220;6.528;2022-10-16T10:17:52;18.10;99.90
52965;DHT22;42923;53.220;6.528;2022-10-16T10:20:29;18.20;99.90
52965;DHT22;42923;53.220;6.528;2022-10-16T10:22:56;18.70;99.90
52965;DHT22;42923;53.220;6.528;2022-10-16T10:25:25;19.10;99.90
52965;DHT22;42923;53.220;6.528;2022-10-16T10:38:35;19.40;99.90
52965;DHT22;42923;53.220;6.528;2022-10-16T10:41:06;19.70;99.90
52965;DHT22;42923;53.220;6.528;2022-10-16T10:46:23;19.80;99.90
52965;DHT22;42923;53.220;6.528;2022-10-16T10:51:31;20.60;99.90
52965;DHT22;42923;53.220;6.528;2022-10-16T10:56:44;20.90;99.90
52965;DHT22;42923;53.220;6.528;2022-10-16T10:59:19;21.10;99.90
52965;DHT22;42923;53.220;6.528;2022-10-16T11:01:56;20.80;99.90
52965;DHT22;42923;53.220;6.528;2022-10-16T11:04:34;20.30;99.90
52965;DHT22;42923;53.220;6.528;2022-10-16T11:07:05;20.10;99.90
52965;DHT22;42923;53.220;6.528;2022-10-16T11:09:38;19.90;99.90
52965;DHT22;42923;53.220;6.528;2022-10-16T11:12:07;19.60;99.90
52965;DHT22;42923;53.220;6.528;2022-10-16T11:14:56;19.20;99.90
52965;DHT22;42923;53.220;6.528;2022-10-16T11:17:28;19.40;99.90
52965;DHT22;42923;53.220;6.528;2022-10-16T11:19:57;19.80;99.90
52965;DHT22;42923;53.220;6.528;2022-10-16T11:22:27;20.30;99.90
52965;DHT22;42923;53.220;6.528;2022-10-16T11:24:59;20.60;99.90
52965;DHT22;42923;53.220;6.528;2022-10-16T11:28:09;21.20;99.90
52965;DHT22;42923;53.220;6.528;2022-10-16T11:30:22;21.30;99.90
52965;DHT22;42923;53.220;6.528;2022-10-16T11:38:03;22.00;99.90
52965;DHT22;42923;53.220;6.528;2022-10-16T11:40:35;22.10;99.90
52965;DHT22;42923;53.220;6.528;2022-10-16T11:43:10;22.20;92.90
52965;DHT22;42923;53.220;6.528;2022-10-16T11:45:40;22.40;89.50
52965;DHT22;42923;53.220;6.528;2022-10-16T11:51:06;22.80;97.90
52965;DHT22;42923;53.220;6.528;2022-10-16T11:56:06;23.30;84.60
52965;DHT22;42923;53.220;6.528;2022-10-16T11:58:34;23.10;85.60
52965;DHT22;42923;53.220;6.528;2022-10-16T12:03:34;22.40;91.40
52965;DHT22;42923;53.220;6.528;2022-10-16T12:06:06;22.50;82.60
52965;DHT22;42923;53.220;6.528;2022-10-16T12:08:36;22.60;92.10
52965;DHT22;42923;53.220;6.528;2022-10-16T12:11:06;22.70;94.20
52965;DHT22;42923;53.220;6.528;2022-10-16T12:18:39;23.20;87.60
52965;DHT22;42923;53.220;6.528;2022-10-16T12:21:05;23.20;95.00
52965;DHT22;42923;53.220;6.528;2022-10-16T12:23:32;23.10;85.90
52965;DHT22;42923;53.220;6.528;2022-10-16T12:25:59;23.30;99.90
52965;DHT22;42923;53.220;6.528;2022-10-16T12:28:29;23.00;76.40
52965;DHT22;42923;53.220;6.528;2022-10-16T12:30:56;22.70;78.50
52965;DHT22;42923;53.220;6.528;2022-10-16T12:33:23;22.60;88.10
52965;DHT22;42923;53.220;6.528;2022-10-16T12:35:49;22.60;92.50
52965;DHT22;42923;53.220;6.528;2022-10-16T12:38:37;22.60;94.80
52965;DHT22;42923;53.220;6.528;2022-10-16T12:41:02;22.80;93.40
52965;DHT22;42923;53.220;6.528;2022-10-16T12:46:01;22.80;99.90
52965;DHT22;42923;53.220;6.528;2022-10-16T12:48:27;22.30;95.10
52965;DHT22;42923;53.220;6.528;2022-10-16T12:50:54;21.50;96.60
52965;DHT22;42923;53.220;6.528;2022-10-16T12:53:20;20.90;97.80
52965;DHT22;42923;53.220;6.528;2022-10-16T12:59:06;20.40;99.90
52965;DHT22;42923;53.220;6.528;2022-10-16T13:01:37;20.00;98.70
52965;DHT22;42923;53.220;6.528;2022-10-16T13:04:10;19.70;99.90
52965;DHT22;42923;53.220;6.528;2022-10-16T13:06:46;19.60;99.90
52965;DHT22;42923;53.220;6.528;2022-10-16T13:09:19;19.60;99.90
52965;DHT22;42923;53.220;6.528;2022-10-16T13:12:06;19.70;99.90
52965;DHT22;42923;53.220;6.528;2022-10-16T13:19:32;20.20;99.90
52965;DHT22;42923;53.220;6.528;2022-10-16T13:29:16;20.10;99.90
52965;DHT22;42923;53.220;6.528;2022-10-16T13:31:42;20.10;98.90
52965;DHT22;42923;53.220;6.528;2022-10-16T13:34:13;20.20;92.60
52965;DHT22;42923;53.220;6.528;2022-10-16T13:36:44;20.10;92.90
52965;DHT22;42923;53.220;6.528;2022-10-16T13:39:11;19.60;93.80
52965;DHT22;42923;53.220;6.528;2022-10-16T13:41:37;19.20;97.20
52965;DHT22;42923;53.220;6.528;2022-10-16T13:44:03;18.90;99.90
52965;DHT22;42923;53.220;6.528;2022-10-16T13:46:29;18.90;99.90
52965;DHT22;42923;53.220;6.528;2022-10-16T13:49:00;19.10;99.90
52965;DHT22;42923;53.220;6.528;2022-10-16T13:51:26;19.50;99.90
52965;DHT22;42923;53.220;6.528;2022-10-16T13:53:52;19.90;99.40
52965;DHT22;42923;53.220;6.528;2022-10-16T13:56:20;20.20;99.90
52965;DHT22;42923;53.220;6.528;2022-10-16T13:58:58;20.50;94.30
52965;DHT22;42923;53.220;6.528;2022-10-16T14:03:33;21.00;96.70
52965;DHT22;42923;53.220;6.528;2022-10-16T14:06:03;21.20;99.90
52965;DHT22;42923;53.220;6.528;2022-10-16T14:08:31;21.50;99.90
52965;DHT22;42923;53.220;6.528;2022-10-16T14:10:59;21.70;99.90
52965;DHT22;42923;53.220;6.528;2022-10-16T14:13:38;21.70;99.40
52965;DHT22;42923;53.220;6.528;2022-10-16T14:16:10;21.40;98.20
52965;DHT22;42923;53.220;6.528;2022-10-16T14:18:38;20.80;99.90
52965;DHT22;42923;53.220;6.528;2022-10-16T14:21:13;20.20;99.90
52965;DHT22;42923;53.220;6.528;2022-10-16T14:23:41;19.60;99.90
52965;DHT22;42923;53.220;6.528;2022-10-16T14:28:32;18.90;99.90
52965;DHT22;42923;53.220;6.528;2022-10-16T14:30:59;18.50;99.90
52965;DHT22;42923;53.220;6.528;2022-10-16T14:36:14;17.80;99.90
52965;DHT22;42923;53.220;6.528;2022-10-16T14:38:53;17.60;99.90
52965;DHT22;42923;53.220;6.528;2022-10-16T14:41:21;17.30;99.90
52965;DHT22;42923;53.220;6.528;2022-10-16T14:43:51;17.10;99.90
52965;DHT22;42923;53.220;6.528;2022-10-16T14:46:20;17.00;99.90
52965;DHT22;42923;53.220;6.528;2022-10-16T14:48:50;16.80;99.90
52965;DHT22;42923;53.220;6.528;2022-10-16T14:51:17;16.70;99.90
52965;DHT22;42923;53.220;6.528;2022-10-16T14:53:43;16.60;99.90
52965;DHT22;42923;53.220;6.528;2022-10-16T14:56:18;16.40;99.90
52965;DHT22;42923;53.220;6.528;2022-10-16T14:58:44;16.30;99.90
52965;DHT22;42923;53.220;6.528;2022-10-16T15:01:10;16.20;99.90
52965;DHT22;42923;53.220;6.528;2022-10-16T15:03:38;16.10;99.90
52965;DHT22;42923;53.220;6.528;2022-10-16T15:06:04;16.00;99.90
52965;DHT22;42923;53.220;6.528;2022-10-16T15:08:35;15.90;99.90
52965;DHT22;42923;53.220;6.528;2022-10-16T15:11:00;15.80;99.90
52965;DHT22;42923;53.220;6.528;2022-10-16T15:13:26;15.80;99.90
52965;DHT22;42923;53.220;6.528;2022-10-16T15:15:53;15.80;99.90
52965;DHT22;42923;53.220;6.528;2022-10-16T15:18:19;15.70;99.90
52965;DHT22;42923;53.220;6.528;2022-10-16T15:20:48;15.60;99.90
52965;DHT22;42923;53.220;6.528;2022-10-16T15:23:19;15.50;99.90
52965;DHT22;42923;53.220;6.528;2022-10-16T15:25:46;15.50;99.90
52965;DHT22;42923;53.220;6.528;2022-10-16T15:28:13;15.50;99.90
52965;DHT22;42923;53.220;6.528;2022-10-16T15:30:40;15.40;99.90
52965;DHT22;42923;53.220;6.528;2022-10-16T15:33:12;15.30;99.90
52965;DHT22;42923;53.220;6.528;2022-10-16T15:35:39;15.20;99.90
52965;DHT22;42923;53.220;6.528;2022-10-16T15:38:05;15.20;99.90
52965;DHT22;42923;53.220;6.528;2022-10-16T15:40:30;15.10;99.90
52965;DHT22;42923;53.220;6.528;2022-10-16T15:42:56;15.00;99.90
52965;DHT22;42923;53.220;6.528;2022-10-16T15:45:22;14.90;99.90
52965;DHT22;42923;53.220;6.528;2022-10-16T15:47:48;14.80;99.90
52965;DHT22;42923;53.220;6.528;2022-10-16T15:50:15;14.70;99.90
52965;DHT22;42923;53.220;6.528;2022-10-16T15:52:41;14.60;99.90
52965;DHT22;42923;53.220;6.528;2022-10-16T15:56:45;14.50;99.90
52965;DHT22;42923;53.220;6.528;2022-10-16T15:59:11;14.40;99.90
52965;DHT22;42923;53.220;6.528;2022-10-16T16:01:37;14.30;99.90
52965;DHT22;42923;53.220;6.528;2022-10-16T16:04:02;14.20;99.90
52965;DHT22;42923;53.220;6.528;2022-10-16T16:06:29;14.10;99.90
52965;DHT22;42923;53.220;6.528;2022-10-16T16:08:55;14.00;99.90
52965;DHT22;42923;53.220;6.528;2022-10-16T16:11:21;13.90;99.90
52965;DHT22;42923;53.220;6.528;2022-10-16T16:13:49;13.80;99.90
52965;DHT22;42923;53.220;6.528;2022-10-16T16:16:16;13.60;99.90
52965;DHT22;42923;53.220;6.528;2022-10-16T16:18:42;13.50;99.90
52965;DHT22;42923;53.220;6.528;2022-10-16T16:21:11;13.40;99.90
52965;DHT22;42923;53.220;6.528;2022-10-16T16:23:37;13.30;99.90
52965;DHT22;42923;53.220;6.528;2022-10-16T16:26:15;13.20;99.90
52965;DHT22;42923;53.220;6.528;2022-10-16T16:28:47;13.00;99.90
52965;DHT22;42923;53.220;6.528;2022-10-16T16:31:13;12.90;99.90
52965;DHT22;42923;53.220;6.528;2022-10-16T16:33:38;12.80;99.90
52965;DHT22;42923;53.220;6.528;2022-10-16T16:36:05;12.70;99.90
52965;DHT22;42923;53.220;6.528;2022-10-16T16:38:32;12.60;99.90
52965;DHT22;42923;53.220;6.528;2022-10-16T16:40:58;12.50;99.90
52965;DHT22;42923;53.220;6.528;2022-10-16T16:43:25;12.40;99.90
52965;DHT22;42923;53.220;6.528;2022-10-16T16:45:52;12.30;99.90
52965;DHT22;42923;53.220;6.528;2022-10-16T16:48:18;12.20;99.90
52965;DHT22;42923;53.220;6.528;2022-10-16T16:50:44;12.10;99.90
52965;DHT22;42923;53.220;6.528;2022-10-16T16:53:10;11.90;99.90
52965;DHT22;42923;53.220;6.528;2022-10-16T16:55:36;11.90;99.90
52965;DHT22;42923;53.220;6.528;2022-10-16T16:58:01;11.90;99.90
52965;DHT22;42923;53.220;6.528;2022-10-16T17:00:29;11.70;99.90
52965;DHT22;42923;53.220;6.528;2022-10-16T17:02:56;11.70;99.90
52965;DHT22;42923;53.220;6.528;2022-10-16T17:05:22;11.60;99.90